createdAt,value
2023-04-18T00:00:58.055Z,1.60
2023-04-18T00:03:30.309Z,1.60
2023-04-18T00:06:02.723Z,1.80
2023-04-18T00:08:34.716Z,1.80
2023-04-18T00:11:06.288Z,1.60
2023-04-18T00:13:38.619Z,1.40
2023-04-18T00:16:13.503Z,1.60
2023-04-18T00:18:45.093Z,1.40
2023-04-18T00:21:16.977Z,1.70
2023-04-18T00:23:48.400Z,2.00
2023-04-18T00:26:19.928Z,1.90
2023-04-18T00:28:52.036Z,1.90
2023-04-18T00:31:23.406Z,1.70
2023-04-18T00:33:55.638Z,1.60
2023-04-18T00:36:28.445Z,1.70
2023-04-18T00:39:00.156Z,1.60
2023-04-18T00:41:32.814Z,1.50
2023-04-18T00:44:04.776Z,1.40
2023-04-18T00:46:36.123Z,1.70
2023-04-18T00:49:07.747Z,1.50
2023-04-18T00:51:40.118Z,1.60
2023-04-18T00:54:13.898Z,1.80
2023-04-18T00:56:46.113Z,1.40
2023-04-18T00:59:17.780Z,1.60
2023-04-18T01:01:50.236Z,1.60
2023-04-18T01:04:21.763Z,1.70
2023-04-18T01:06:53.134Z,1.50
2023-04-18T01:09:27.342Z,1.50
2023-04-18T01:11:58.805Z,1.50
2023-04-18T01:14:31.034Z,1.40
2023-04-18T01:17:03.031Z,1.40
2023-04-18T01:19:38.075Z,1.50
2023-04-18T01:22:11.964Z,1.30
2023-04-18T01:24:46.157Z,1.30
2023-04-18T01:27:17.580Z,1.30
2023-04-18T01:29:49.267Z,1.40
2023-04-18T01:32:20.847Z,1.20
2023-04-18T01:34:52.504Z,1.50
2023-04-18T01:37:23.913Z,1.20
2023-04-18T01:39:55.399Z,1.20
2023-04-18T01:42:27.057Z,1.10
2023-04-18T01:44:58.880Z,1.10
2023-04-18T01:47:30.062Z,1.30
2023-04-18T01:50:01.830Z,1.30
2023-04-18T01:52:33.267Z,1.20
2023-04-18T01:55:06.247Z,1.30
2023-04-18T01:57:37.871Z,1.30
2023-04-18T02:00:11.399Z,1.20
2023-04-18T02:02:50.398Z,1.20
2023-04-18T02:05:22.701Z,1.30
2023-04-18T02:07:54.392Z,1.30
2023-04-18T02:10:26.407Z,1.40
2023-04-18T02:12:57.743Z,1.20
2023-04-18T02:15:29.852Z,1.00
2023-04-18T02:18:01.591Z,1.20
2023-04-18T02:20:34.008Z,1.30
2023-04-18T02:23:06.798Z,1.20
2023-04-18T02:25:37.903Z,1.20
2023-04-18T02:28:09.634Z,1.40
2023-04-18T02:30:41.253Z,1.30
2023-04-18T02:33:13.064Z,1.20
2023-04-18T02:35:44.535Z,1.30
2023-04-18T02:38:16.095Z,1.00
2023-04-18T02:40:47.664Z,1.30
2023-04-18T02:43:18.896Z,1.30
2023-04-18T02:45:50.595Z,1.20
2023-04-18T02:48:22.025Z,1.30
2023-04-18T02:50:53.678Z,1.20
2023-04-18T02:53:25.259Z,1.20
2023-04-18T02:55:58.712Z,1.30
2023-04-18T02:58:37.111Z,1.20
2023-04-18T03:01:29.018Z,1.30
2023-04-18T03:04:12.949Z,1.50
2023-04-18T03:06:49.238Z,1.40
2023-04-18T03:09:21.400Z,1.20
2023-04-18T03:11:55.428Z,1.30
2023-04-18T03:14:29.930Z,1.40
2023-04-18T03:17:01.818Z,1.30
2023-04-18T03:19:37.684Z,1.40
2023-04-18T03:22:12.760Z,1.40
2023-04-18T03:24:49.168Z,1.30
2023-04-18T03:27:22.477Z,1.20
2023-04-18T03:29:54.490Z,1.20
2023-04-18T03:32:26.512Z,1.20
2023-04-18T03:34:58.086Z,1.20
2023-04-18T03:37:29.524Z,1.30
2023-04-18T03:40:01.102Z,1.20
2023-04-18T03:42:34.445Z,1.20
2023-04-18T03:45:06.900Z,1.30
2023-04-18T03:47:39.400Z,1.20
2023-04-18T03:50:12.288Z,1.30
2023-04-18T03:52:43.942Z,1.40
2023-04-18T03:55:16.629Z,1.30
2023-04-18T03:57:48.184Z,1.40
2023-04-18T04:00:25.910Z,1.40
2023-04-18T04:03:03.702Z,1.10
2023-04-18T04:05:35.869Z,1.30
2023-04-18T04:08:07.689Z,1.60
2023-04-18T04:10:39.576Z,1.30
2023-04-18T04:13:11.539Z,1.30
2023-04-18T04:15:43.461Z,1.30
2023-04-18T04:18:15.205Z,1.50
2023-04-18T04:20:49.146Z,1.30
2023-04-18T04:23:31.203Z,1.80
2023-04-18T04:26:04.253Z,1.50
2023-04-18T04:28:58.648Z,1.30
2023-04-18T04:31:32.120Z,1.40
2023-04-18T04:34:05.076Z,1.20
2023-04-18T04:36:37.387Z,1.40
2023-04-18T04:39:11.564Z,1.50
2023-04-18T04:42:03.989Z,1.20
2023-04-18T04:44:42.814Z,1.30
2023-04-18T04:47:15.060Z,1.20
2023-04-18T04:49:46.321Z,1.70
2023-04-18T04:52:17.722Z,1.50
2023-04-18T04:54:49.108Z,1.90
2023-04-18T04:57:22.095Z,1.50
2023-04-18T04:59:53.876Z,1.50
2023-04-18T05:02:27.664Z,1.50
2023-04-18T05:04:58.891Z,1.70
2023-04-18T05:07:30.246Z,1.50
2023-04-18T05:10:01.908Z,1.80
2023-04-18T05:12:33.498Z,1.70
2023-04-18T05:15:05.654Z,1.70
2023-04-18T05:17:37.232Z,1.70
2023-04-18T05:20:10.612Z,1.80
2023-04-18T05:22:42.543Z,1.50
2023-04-18T05:25:14.475Z,1.80
2023-04-18T05:27:46.780Z,1.70
2023-04-18T05:30:18.424Z,1.60
2023-04-18T05:32:50.552Z,1.80
2023-04-18T05:35:22.042Z,2.10
2023-04-18T05:37:53.499Z,1.80
2023-04-18T05:40:24.749Z,2.10
2023-04-18T05:42:56.524Z,1.80
2023-04-18T05:45:28.254Z,1.80
2023-04-18T05:47:59.900Z,1.90
2023-04-18T05:50:31.282Z,1.70
2023-04-18T05:53:02.838Z,1.70
2023-04-18T05:55:35.451Z,1.80
2023-04-18T05:58:07.069Z,1.60
2023-04-18T06:00:38.549Z,1.80
2023-04-18T06:03:11.325Z,1.60
2023-04-18T06:05:43.712Z,2.10
2023-04-18T06:08:15.769Z,1.80
2023-04-18T06:10:47.324Z,1.60
2023-04-18T06:13:18.757Z,1.70
2023-04-18T06:15:50.066Z,1.50
2023-04-18T06:18:22.100Z,1.60
2023-04-18T06:20:53.495Z,1.60
2023-04-18T06:23:25.055Z,1.70
2023-04-18T06:25:57.080Z,1.70
2023-04-18T06:28:28.984Z,1.40
2023-04-18T06:31:00.540Z,1.40
2023-04-18T06:33:32.279Z,1.70
2023-04-18T06:36:03.712Z,1.40
2023-04-18T06:38:35.559Z,1.70
2023-04-18T06:41:07.590Z,1.90
2023-04-18T06:43:39.970Z,1.60
2023-04-18T06:46:14.207Z,2.00
2023-04-18T06:48:45.948Z,1.80
2023-04-18T06:51:17.168Z,2.00
2023-04-18T06:53:48.704Z,2.10
2023-04-18T06:56:20.530Z,2.10
2023-04-18T06:58:53.220Z,2.00
2023-04-18T07:01:25.062Z,1.80
2023-04-18T07:03:56.792Z,1.90
2023-04-18T07:06:28.415Z,2.00
2023-04-18T07:09:01.432Z,2.10
2023-04-18T07:11:33.367Z,1.90
2023-04-18T07:14:04.759Z,1.90
2023-04-18T07:16:36.462Z,1.90
2023-04-18T07:19:08.503Z,2.00
2023-04-18T07:21:40.699Z,2.00
2023-04-18T07:24:13.216Z,1.90
2023-04-18T07:26:45.463Z,2.00
2023-04-18T07:29:17.232Z,2.10
2023-04-18T07:31:48.482Z,2.00
2023-04-18T07:34:19.876Z,1.90
2023-04-18T07:36:51.439Z,1.90
2023-04-18T07:39:22.997Z,1.80
2023-04-18T07:41:54.314Z,1.90
2023-04-18T07:44:25.518Z,1.80
2023-04-18T07:46:56.996Z,1.80
2023-04-18T07:49:29.342Z,1.90
2023-04-18T07:52:00.697Z,1.80
2023-04-18T07:54:32.420Z,1.70
2023-04-18T07:57:03.794Z,1.70
2023-04-18T07:59:35.290Z,1.70
2023-04-18T08:02:06.931Z,1.80
2023-04-18T08:04:38.737Z,2.50
2023-04-18T08:07:10.350Z,2.00
2023-04-18T08:09:41.495Z,1.70
2023-04-18T08:12:12.963Z,1.40
2023-04-18T08:14:44.479Z,1.50
2023-04-18T08:17:15.916Z,1.80
2023-04-18T08:19:47.534Z,1.90
2023-04-18T08:22:19.472Z,2.40
2023-04-18T08:27:29.010Z,1.80
2023-04-18T08:30:00.831Z,2.50
2023-04-18T08:32:32.667Z,2.90
2023-04-18T08:35:04.992Z,2.00
2023-04-18T08:37:36.504Z,3.20
2023-04-18T08:40:09.857Z,1.80
2023-04-18T08:42:44.440Z,2.50
2023-04-18T08:45:17.623Z,1.90
2023-04-18T08:47:49.668Z,1.90
2023-04-18T08:50:21.771Z,1.70
2023-04-18T08:52:56.286Z,2.00
2023-04-18T08:55:28.089Z,1.90
2023-04-18T08:57:59.834Z,2.60
2023-04-18T09:00:32.740Z,3.30
2023-04-18T09:03:04.446Z,4.10
2023-04-18T09:05:36.016Z,3.40
2023-04-18T09:08:25.442Z,2.20
2023-04-18T09:10:57.210Z,2.40
2023-04-18T09:13:46.355Z,2.00
2023-04-18T09:16:19.539Z,2.30
2023-04-18T09:19:15.106Z,3.00
2023-04-18T09:21:49.019Z,2.50
2023-04-18T09:24:30.057Z,2.70
2023-04-18T09:27:01.576Z,5.70
2023-04-18T09:29:47.550Z,2.80
2023-04-18T09:32:27.535Z,2.20
2023-04-18T09:35:03.922Z,6.30
2023-04-18T09:37:36.672Z,106.10
2023-04-18T09:40:20.029Z,102.70
2023-04-18T09:42:51.840Z,141.40
2023-04-18T09:45:24.051Z,41.00
2023-04-18T09:47:56.171Z,16.50
2023-04-18T09:50:27.975Z,11.00
2023-04-18T09:53:01.038Z,14.70
2023-04-18T09:55:33.746Z,5.40
2023-04-18T09:58:08.814Z,12.80
2023-04-18T10:00:41.353Z,9.50
2023-04-18T10:03:16.286Z,9.20
2023-04-18T10:05:48.855Z,8.30
2023-04-18T10:08:20.197Z,5.90
2023-04-18T10:10:51.796Z,11.00
2023-04-18T10:13:23.985Z,3.60
2023-04-18T10:15:56.588Z,3.50
2023-04-18T10:18:28.009Z,2.70
2023-04-18T10:21:05.278Z,2.50
2023-04-18T10:23:40.847Z,2.50
2023-04-18T10:26:13.194Z,2.20
2023-04-18T10:28:57.020Z,2.40
2023-04-18T10:31:29.673Z,2.70
2023-04-18T10:34:05.516Z,2.50
2023-04-18T10:36:37.388Z,2.40
2023-04-18T10:39:25.848Z,2.10
2023-04-18T10:41:56.979Z,2.60
2023-04-18T10:44:28.454Z,2.00
2023-04-18T10:47:25.776Z,2.20
2023-04-18T10:50:01.700Z,2.40
2023-04-18T10:52:36.882Z,2.60
2023-04-18T10:55:18.632Z,1.80
2023-04-18T10:57:51.588Z,2.10
2023-04-18T11:00:26.161Z,2.10
2023-04-18T11:03:00.807Z,2.20
2023-04-18T11:05:32.894Z,1.80
2023-04-18T11:08:04.728Z,2.00
2023-04-18T11:10:35.897Z,2.00
2023-04-18T11:13:08.525Z,1.90
2023-04-18T11:15:40.047Z,2.30
2023-04-18T11:18:12.808Z,2.30
2023-04-18T11:20:50.624Z,2.20
2023-04-18T11:23:25.125Z,2.50
2023-04-18T11:25:58.311Z,2.10
2023-04-18T11:28:29.802Z,2.50
2023-04-18T11:31:02.907Z,2.90
2023-04-18T11:33:34.682Z,2.60
2023-04-18T11:36:06.881Z,2.40
2023-04-18T11:38:41.498Z,2.40
2023-04-18T11:41:17.133Z,2.80
2023-04-18T11:43:49.118Z,2.40
2023-04-18T11:46:20.827Z,2.50
2023-04-18T11:48:52.212Z,2.40
2023-04-18T11:51:38.804Z,2.40
2023-04-18T11:54:40.115Z,2.70
2023-04-18T11:57:23.949Z,2.70
2023-04-18T11:59:57.935Z,3.50
2023-04-18T12:02:42.227Z,2.60
2023-04-18T12:05:25.343Z,5.70
2023-04-18T12:07:57.223Z,5.10
2023-04-18T12:10:30.262Z,2.30
2023-04-18T12:13:02.614Z,2.60
2023-04-18T12:15:34.336Z,2.40
2023-04-18T12:18:08.858Z,2.40
2023-04-18T12:20:46.483Z,2.10
2023-04-18T12:23:33.063Z,2.40
2023-04-18T12:26:06.559Z,2.30
2023-04-18T12:28:38.736Z,2.30
2023-04-18T12:31:10.525Z,2.50
2023-04-18T12:33:41.578Z,2.30
2023-04-18T12:36:14.975Z,2.10
2023-04-18T12:38:47.157Z,2.30
2023-04-18T12:41:18.391Z,2.10
2023-04-18T12:43:49.645Z,2.40
2023-04-18T12:46:21.384Z,2.30
2023-04-18T12:48:53.065Z,2.60
2023-04-18T12:51:24.695Z,2.30
2023-04-18T12:53:56.796Z,2.20
2023-04-18T12:56:28.446Z,2.40
2023-04-18T12:58:59.896Z,2.40
2023-04-18T13:01:31.169Z,2.40
2023-04-18T13:04:11.658Z,2.40
2023-04-18T13:06:44.297Z,2.50
2023-04-18T13:09:16.779Z,2.40
2023-04-18T13:11:49.634Z,2.60
2023-04-18T13:14:21.519Z,2.40
2023-04-18T13:16:52.777Z,2.50
2023-04-18T13:19:24.671Z,2.20
2023-04-18T13:21:56.185Z,2.00
2023-04-18T13:24:28.040Z,2.20
2023-04-18T13:26:59.482Z,2.10
2023-04-18T13:29:31.224Z,2.40
2023-04-18T13:32:02.798Z,2.10
2023-04-18T13:34:34.721Z,2.30
2023-04-18T13:37:06.449Z,2.40
2023-04-18T13:39:38.518Z,2.30
2023-04-18T13:42:10.561Z,2.20
2023-04-18T13:44:42.194Z,1.90
2023-04-18T13:47:13.458Z,2.30
2023-04-18T13:49:44.952Z,2.10
2023-04-18T13:52:16.442Z,2.40
2023-04-18T13:54:48.431Z,2.00
2023-04-18T13:57:20.273Z,2.30
2023-04-18T13:59:52.148Z,2.50
2023-04-18T14:02:23.636Z,2.30
2023-04-18T14:04:55.451Z,2.30
2023-04-18T14:07:27.108Z,2.10
2023-04-18T14:09:58.784Z,2.40
2023-04-18T14:12:31.546Z,2.30
2023-04-18T14:15:03.621Z,2.70
2023-04-18T14:17:40.050Z,2.30
2023-04-18T14:20:12.556Z,2.70
2023-04-18T14:22:47.688Z,2.40
2023-04-18T14:25:19.539Z,2.40
2023-04-18T14:28:04.620Z,2.60
2023-04-18T14:30:36.684Z,3.10
2023-04-18T14:33:09.768Z,2.50
2023-04-18T14:35:42.133Z,2.20
2023-04-18T14:38:14.181Z,2.60
2023-04-18T14:40:45.793Z,2.80
2023-04-18T14:43:17.201Z,2.60
2023-04-18T14:45:48.572Z,2.30
2023-04-18T14:48:20.318Z,2.50
2023-04-18T14:50:59.328Z,2.80
2023-04-18T14:53:31.246Z,2.40
2023-04-18T14:56:03.314Z,2.50
2023-04-18T14:58:35.490Z,2.70
2023-04-18T15:01:08.179Z,2.70
2023-04-18T15:03:41.674Z,2.00
2023-04-18T15:06:13.775Z,2.60
2023-04-18T15:08:45.875Z,2.40
2023-04-18T15:11:17.540Z,2.40
2023-04-18T15:13:50.200Z,2.40
2023-04-18T15:16:21.611Z,2.30
2023-04-18T15:18:53.174Z,2.40
2023-04-18T15:21:25.687Z,2.80
2023-04-18T15:23:57.466Z,2.40
2023-04-18T15:26:30.465Z,2.40
2023-04-18T15:29:05.243Z,2.30
2023-04-18T15:31:38.977Z,2.30
2023-04-18T15:34:11.778Z,2.30
2023-04-18T15:36:43.821Z,2.40
2023-04-18T15:39:18.349Z,3.00
2023-04-18T15:41:52.808Z,2.50
2023-04-18T15:44:24.567Z,2.60
2023-04-18T15:46:56.101Z,2.70
2023-04-18T15:49:27.715Z,2.80
2023-04-18T15:51:59.282Z,2.60
2023-04-18T15:54:30.921Z,2.50
2023-04-18T15:57:02.767Z,2.40
2023-04-18T15:59:34.039Z,3.00
2023-04-18T16:02:06.829Z,2.90
2023-04-18T16:04:38.681Z,2.70
2023-04-18T16:07:10.621Z,2.60
2023-04-18T16:09:41.799Z,2.50
2023-04-18T16:12:13.750Z,2.60
2023-04-18T16:14:45.834Z,2.70
2023-04-18T16:17:17.517Z,2.80
2023-04-18T16:19:50.277Z,2.60
2023-04-18T16:22:21.413Z,2.90
2023-04-18T16:24:53.792Z,3.00
2023-04-18T16:27:25.790Z,2.40
2023-04-18T16:29:57.425Z,2.50
2023-04-18T16:32:28.694Z,2.60
2023-04-18T16:35:00.389Z,2.50
2023-04-18T16:37:31.675Z,2.40
2023-04-18T16:40:03.522Z,3.00
2023-04-18T16:42:35.338Z,2.40
2023-04-18T16:45:08.078Z,2.40
2023-04-18T16:47:39.852Z,2.10
2023-04-18T16:50:12.950Z,2.50
2023-04-18T16:52:44.928Z,2.50
2023-04-18T16:55:16.683Z,2.70
2023-04-18T16:57:48.210Z,2.70
2023-04-18T17:00:20.464Z,2.40
2023-04-18T17:02:52.012Z,2.60
2023-04-18T17:05:23.941Z,2.40
2023-04-18T17:07:56.223Z,2.70
2023-04-18T17:10:28.246Z,2.80
2023-04-18T17:13:00.987Z,2.50
2023-04-18T17:15:32.836Z,2.60
2023-04-18T17:18:04.604Z,2.60
2023-04-18T17:20:36.490Z,2.20
2023-04-18T17:23:07.822Z,2.30
2023-04-18T17:25:39.013Z,2.30
2023-04-18T17:28:11.998Z,2.30
2023-04-18T17:30:44.325Z,3.10
2023-04-18T17:33:15.784Z,2.80
2023-04-18T17:35:48.230Z,2.40
2023-04-18T17:38:19.870Z,2.30
2023-04-18T17:40:58.641Z,2.40
2023-04-18T17:43:30.365Z,2.40
2023-04-18T17:46:03.943Z,2.20
2023-04-18T17:48:35.469Z,2.50
2023-04-18T17:51:07.227Z,2.40
2023-04-18T17:53:38.812Z,2.70
2023-04-18T17:56:11.093Z,2.60
2023-04-18T17:58:42.900Z,2.50
2023-04-18T18:01:19.045Z,2.70
2023-04-18T18:03:53.981Z,2.60
2023-04-18T18:06:27.989Z,2.90
2023-04-18T18:08:59.601Z,3.20
2023-04-18T18:11:31.304Z,3.60
2023-04-18T18:14:02.663Z,3.90
2023-04-18T18:16:34.118Z,4.00
2023-04-18T18:19:07.607Z,4.00
2023-04-18T18:21:39.138Z,3.10
2023-04-18T18:24:11.438Z,2.90
2023-04-18T18:26:43.234Z,3.10
2023-04-18T18:29:15.341Z,3.10
2023-04-18T18:31:47.040Z,3.10
2023-04-18T18:34:20.127Z,2.90
2023-04-18T18:36:51.751Z,2.90
2023-04-18T18:39:23.322Z,2.80
2023-04-18T18:41:54.592Z,2.90
2023-04-18T18:44:26.590Z,2.80
2023-04-18T18:47:00.113Z,2.80
2023-04-18T18:49:31.723Z,2.80
2023-04-18T18:52:05.019Z,2.70
2023-04-18T18:54:37.077Z,2.80
2023-04-18T18:57:09.220Z,2.80
2023-04-18T18:59:41.628Z,2.60
2023-04-18T19:02:13.256Z,3.00
2023-04-18T19:04:45.185Z,2.80
2023-04-18T19:07:16.856Z,2.60
2023-04-18T19:09:48.321Z,2.70
2023-04-18T19:12:20.204Z,2.70
2023-04-18T19:14:52.509Z,2.50
2023-04-18T19:17:24.911Z,2.70
2023-04-18T19:19:58.226Z,3.00
2023-04-18T19:22:29.602Z,3.10
2023-04-18T19:25:01.329Z,2.80
2023-04-18T19:27:32.657Z,2.90
2023-04-18T19:30:03.906Z,2.80
2023-04-18T19:32:36.272Z,2.90
2023-04-18T19:35:09.957Z,3.20
2023-04-18T19:37:41.696Z,2.80
2023-04-18T19:40:14.418Z,2.80
2023-04-18T19:42:46.209Z,2.90
2023-04-18T19:45:17.962Z,2.80
2023-04-18T19:47:49.271Z,3.10
2023-04-18T19:50:20.841Z,3.30
2023-04-18T19:52:52.381Z,3.30
2023-04-18T19:55:24.482Z,3.50
2023-04-18T19:57:57.125Z,3.50
2023-04-18T20:00:29.489Z,3.10
2023-04-18T20:03:01.003Z,3.60
2023-04-18T20:05:32.415Z,3.40
2023-04-18T20:08:04.709Z,3.70
2023-04-18T20:10:37.552Z,3.60
2023-04-18T20:13:09.283Z,3.70
2023-04-18T20:15:41.068Z,3.70
2023-04-18T20:18:12.840Z,3.40
2023-04-18T20:20:44.426Z,3.60
2023-04-18T20:23:15.783Z,4.10
2023-04-18T20:25:47.164Z,4.50
2023-04-18T20:28:19.067Z,3.60
2023-04-18T20:30:50.632Z,3.50
2023-04-18T20:33:22.732Z,3.70
2023-04-18T20:35:55.017Z,3.40
2023-04-18T20:38:29.968Z,3.50
2023-04-18T20:41:01.237Z,3.30
2023-04-18T20:43:36.894Z,3.60
2023-04-18T20:46:08.546Z,3.50
2023-04-18T20:48:40.135Z,3.10
2023-04-18T20:51:11.781Z,3.30
2023-04-18T20:53:43.312Z,3.30
2023-04-18T20:56:14.744Z,2.90
2023-04-18T20:58:46.445Z,2.70
2023-04-18T21:01:18.515Z,2.50
2023-04-18T21:03:50.601Z,2.50
2023-04-18T21:06:22.405Z,2.30
2023-04-18T21:08:54.379Z,3.00
2023-04-18T21:11:26.228Z,2.70
2023-04-18T21:13:57.738Z,3.20
2023-04-18T21:16:29.675Z,2.80
2023-04-18T21:19:01.568Z,3.10
2023-04-18T21:21:34.585Z,3.10
2023-04-18T21:24:06.899Z,2.70
2023-04-18T21:26:38.712Z,2.70
2023-04-18T21:29:10.275Z,3.20
2023-04-18T21:31:41.801Z,2.40
2023-04-18T21:34:13.785Z,2.50
2023-04-18T21:36:44.987Z,2.30
2023-04-18T21:39:16.782Z,2.70
2023-04-18T21:41:48.350Z,2.60
2023-04-18T21:44:19.905Z,2.60
2023-04-18T21:46:51.248Z,2.60
2023-04-18T21:49:22.943Z,2.30
2023-04-18T21:51:55.206Z,2.40
2023-04-18T21:54:26.836Z,2.30
2023-04-18T21:56:58.505Z,2.20
2023-04-18T21:59:30.152Z,2.20
2023-04-18T22:02:01.621Z,2.00
2023-04-18T22:04:34.325Z,1.80
2023-04-18T22:07:06.641Z,2.00
2023-04-18T22:09:39.058Z,2.40
2023-04-18T22:12:11.693Z,2.20
2023-04-18T22:14:48.547Z,3.10
2023-04-18T22:17:21.159Z,2.40
2023-04-18T22:19:53.783Z,2.40
2023-04-18T22:22:25.180Z,2.40
2023-04-18T22:24:56.551Z,2.60
2023-04-18T22:27:28.278Z,2.50
2023-04-18T22:30:00.027Z,3.00
2023-04-18T22:32:31.049Z,2.50
2023-04-18T22:35:03.249Z,2.70
2023-04-18T22:37:34.833Z,2.70
2023-04-18T22:40:07.817Z,2.80
2023-04-18T22:42:39.035Z,2.90
2023-04-18T22:45:12.442Z,2.90
2023-04-18T22:47:44.116Z,3.30
2023-04-18T22:50:16.475Z,3.00
2023-04-18T22:52:48.060Z,2.50
2023-04-18T22:55:20.418Z,2.60
2023-04-18T22:57:51.652Z,2.90
2023-04-18T23:00:23.753Z,3.00
2023-04-18T23:02:55.163Z,2.50
2023-04-18T23:05:27.413Z,2.50
2023-04-18T23:08:00.366Z,2.50
2023-04-18T23:10:32.478Z,2.30
2023-04-18T23:13:03.953Z,2.20
2023-04-18T23:15:35.841Z,2.70
2023-04-18T23:18:07.714Z,2.10
2023-04-18T23:20:39.114Z,2.10
2023-04-18T23:23:10.592Z,2.30
2023-04-18T23:25:42.239Z,2.10
2023-04-18T23:28:13.914Z,2.10
2023-04-18T23:30:45.755Z,1.90
2023-04-18T23:33:17.860Z,1.80
2023-04-18T23:35:49.082Z,2.00
2023-04-18T23:38:20.403Z,1.90
2023-04-18T23:40:52.064Z,2.00
2023-04-18T23:43:23.665Z,2.00
2023-04-18T23:45:55.217Z,2.00
2023-04-18T23:48:27.312Z,2.10
2023-04-18T23:50:58.602Z,2.00
2023-04-18T23:53:30.074Z,1.80
2023-04-18T23:56:01.282Z,1.90
2023-04-18T23:58:33.765Z,1.90
